createdAt,value
2019-05-12T00:00:19.051Z,9.30
2019-05-12T00:02:45.192Z,9.20
2019-05-12T00:05:11.700Z,9.30
2019-05-12T00:07:38.315Z,9.30
2019-05-12T00:10:05.274Z,9.30
2019-05-12T00:12:31.740Z,9.30
2019-05-12T00:14:59.000Z,9.30
2019-05-12T00:17:25.258Z,9.20
2019-05-12T00:19:51.336Z,9.10
2019-05-12T00:22:19.390Z,9.10
2019-05-12T00:24:47.765Z,9.00
2019-05-12T00:27:17.715Z,9.10
2019-05-12T00:29:43.584Z,9.10
2019-05-12T00:32:09.684Z,9.00
2019-05-12T00:34:35.770Z,9.00
2019-05-12T00:37:01.951Z,9.00
2019-05-12T00:39:28.062Z,8.90
2019-05-12T00:41:54.204Z,8.90
2019-05-12T00:44:20.384Z,8.90
2019-05-12T00:46:48.573Z,8.80
2019-05-12T00:49:14.484Z,8.90
2019-05-12T00:51:40.614Z,8.90
2019-05-12T00:54:08.886Z,8.90
2019-05-12T00:56:34.770Z,8.90
2019-05-12T00:59:00.981Z,8.90
2019-05-12T01:01:28.604Z,8.80
2019-05-12T01:03:54.870Z,8.70
2019-05-12T01:06:20.992Z,8.80
2019-05-12T01:08:48.377Z,8.70
2019-05-12T01:11:14.670Z,8.70
2019-05-12T01:13:40.790Z,8.70
2019-05-12T01:16:08.099Z,8.70
2019-05-12T01:18:34.442Z,8.60
2019-05-12T01:21:00.634Z,8.70
2019-05-12T01:23:28.100Z,8.70
2019-05-12T01:25:54.459Z,8.70
2019-05-12T01:28:20.686Z,8.80
2019-05-12T01:30:47.952Z,8.70
2019-05-12T01:33:14.271Z,8.70
2019-05-12T01:35:40.474Z,8.70
2019-05-12T01:38:08.016Z,8.60
2019-05-12T01:40:34.491Z,8.60
2019-05-12T01:43:00.718Z,8.50
2019-05-12T01:45:28.758Z,8.50
2019-05-12T01:47:54.923Z,8.40
2019-05-12T01:50:21.098Z,8.40
2019-05-12T01:52:47.848Z,8.40
2019-05-12T01:55:14.150Z,8.50
2019-05-12T01:57:40.268Z,8.50
2019-05-12T02:00:09.670Z,8.40
2019-05-12T02:02:36.060Z,8.40
2019-05-12T02:05:04.889Z,8.40
2019-05-12T02:07:32.876Z,8.30
2019-05-12T02:09:59.022Z,8.30
2019-05-12T02:12:25.369Z,8.30
2019-05-12T02:14:51.555Z,8.20
2019-05-12T02:17:18.020Z,8.20
2019-05-12T02:19:44.245Z,8.20
2019-05-12T02:22:10.326Z,8.30
2019-05-12T02:24:38.914Z,8.30
2019-05-12T02:27:04.462Z,8.20
2019-05-12T02:29:30.604Z,8.10
2019-05-12T02:31:59.063Z,8.00
2019-05-12T02:34:25.585Z,8.00
2019-05-12T02:36:55.256Z,8.10
2019-05-12T02:39:20.181Z,8.00
2019-05-12T02:41:46.392Z,7.90
2019-05-12T02:44:15.016Z,8.10
2019-05-12T02:46:40.603Z,8.10
2019-05-12T02:49:06.714Z,8.00
2019-05-12T02:51:35.176Z,8.10
2019-05-12T02:54:01.715Z,8.20
2019-05-12T02:56:29.535Z,8.10
2019-05-12T02:58:56.656Z,8.10
2019-05-12T03:01:26.709Z,8.10
2019-05-12T03:03:54.931Z,8.20
2019-05-12T03:06:25.151Z,8.20
2019-05-12T03:08:55.048Z,8.10
2019-05-12T03:11:24.623Z,8.10
2019-05-12T03:13:49.486Z,8.10
2019-05-12T03:16:15.596Z,8.20
2019-05-12T03:18:44.722Z,8.30
2019-05-12T03:21:09.847Z,8.20
2019-05-12T03:23:55.817Z,8.20
2019-05-12T03:26:24.611Z,8.20
2019-05-12T03:28:49.988Z,8.20
2019-05-12T03:31:22.303Z,8.20
2019-05-12T03:33:51.928Z,8.10
2019-05-12T03:36:17.280Z,8.10
2019-05-12T03:38:40.283Z,8.10
2019-05-12T03:41:06.358Z,8.00
2019-05-12T03:43:35.150Z,8.00
2019-05-12T03:46:00.507Z,8.00
2019-05-12T03:48:26.661Z,8.00
2019-05-12T03:50:54.159Z,8.10
2019-05-12T03:53:24.411Z,8.00
2019-05-12T03:55:48.943Z,8.00
2019-05-12T03:58:15.451Z,8.00
2019-05-12T04:00:44.672Z,8.10
2019-05-12T04:03:10.789Z,8.00
2019-05-12T04:05:36.989Z,8.00
2019-05-12T04:08:05.655Z,8.00
2019-05-12T04:10:35.347Z,8.00
2019-05-12T04:13:10.124Z,8.00
2019-05-12T04:15:45.081Z,8.00
2019-05-12T04:18:08.431Z,7.90
2019-05-12T04:20:35.888Z,8.00
2019-05-12T04:23:07.933Z,8.00
2019-05-12T04:25:47.909Z,8.00
2019-05-12T04:28:04.744Z,8.10
2019-05-12T04:30:30.581Z,8.00
2019-05-12T04:32:56.671Z,8.10
2019-05-12T04:35:25.205Z,8.20
2019-05-12T04:37:50.789Z,8.00
2019-05-12T04:40:16.922Z,8.10
2019-05-12T04:42:45.154Z,8.10
2019-05-12T04:45:15.212Z,8.20
2019-05-12T04:47:39.352Z,8.20
2019-05-12T04:50:05.895Z,8.20
2019-05-12T04:52:35.188Z,8.20
2019-05-12T04:55:00.279Z,8.10
2019-05-12T04:57:26.434Z,8.00
2019-05-12T04:59:54.292Z,7.90
2019-05-12T05:02:20.755Z,8.00
2019-05-12T05:04:46.876Z,8.00
2019-05-12T05:07:14.973Z,8.20
2019-05-12T05:09:40.950Z,8.30
2019-05-12T05:12:07.885Z,8.30
2019-05-12T05:14:34.197Z,8.20
2019-05-12T05:17:00.399Z,8.30
2019-05-12T05:19:26.635Z,8.40
2019-05-12T05:21:54.202Z,8.40
2019-05-12T05:24:20.562Z,8.30
2019-05-12T05:26:46.699Z,8.40
2019-05-12T05:29:13.513Z,8.40
2019-05-12T05:31:39.954Z,8.40
2019-05-12T05:34:06.022Z,8.60
2019-05-12T05:36:34.354Z,8.80
2019-05-12T05:39:01.777Z,8.70
2019-05-12T05:41:28.148Z,8.80
2019-05-12T05:43:58.285Z,8.70
2019-05-12T05:46:24.082Z,8.80
2019-05-12T05:48:50.284Z,8.90
2019-05-12T05:51:16.506Z,9.00
2019-05-12T05:53:44.222Z,9.00
2019-05-12T05:56:10.738Z,8.90
2019-05-12T05:58:40.290Z,8.90
2019-05-12T06:01:08.020Z,9.00
2019-05-12T06:03:33.872Z,9.00
2019-05-12T06:06:01.417Z,9.00
2019-05-12T06:08:28.306Z,9.00
2019-05-12T06:10:54.496Z,9.00
2019-05-12T06:13:21.071Z,9.00
2019-05-12T06:15:48.772Z,9.00
2019-05-12T06:18:14.852Z,9.10
2019-05-12T06:20:40.981Z,9.20
2019-05-12T06:23:07.170Z,9.20
2019-05-12T06:25:46.342Z,9.20
2019-05-12T06:28:02.056Z,9.30
2019-05-12T06:30:29.528Z,9.50
2019-05-12T06:32:55.702Z,9.40
2019-05-12T06:35:23.947Z,9.40
2019-05-12T06:37:57.794Z,9.40
2019-05-12T06:40:17.857Z,9.30
2019-05-12T06:42:48.411Z,9.20
2019-05-12T06:45:14.109Z,9.20
2019-05-12T06:47:46.830Z,9.20
2019-05-12T06:50:08.170Z,9.20
2019-05-12T06:52:38.741Z,9.20
2019-05-12T06:55:04.194Z,9.10
2019-05-12T06:57:30.407Z,9.00
2019-05-12T06:59:56.511Z,9.10
2019-05-12T07:02:24.474Z,9.10
2019-05-12T07:04:57.290Z,9.00
2019-05-12T07:07:18.676Z,9.10
2019-05-12T07:09:53.730Z,9.00
2019-05-12T07:12:13.767Z,9.20
2019-05-12T07:14:40.114Z,9.30
2019-05-12T07:17:08.129Z,9.20
2019-05-12T07:19:34.357Z,9.20
2019-05-12T07:22:00.475Z,9.30
2019-05-12T07:24:26.593Z,9.20
2019-05-12T07:26:54.733Z,9.20
2019-05-12T07:29:20.905Z,9.20
2019-05-12T07:31:47.455Z,9.30
2019-05-12T07:34:13.770Z,9.30
2019-05-12T07:36:44.174Z,9.40
2019-05-12T07:39:30.055Z,9.50
2019-05-12T07:41:58.829Z,9.50
2019-05-12T07:44:26.270Z,9.60
2019-05-12T07:46:54.111Z,9.50
2019-05-12T07:49:22.607Z,9.60
2019-05-12T07:51:50.085Z,9.80
2019-05-12T07:54:16.430Z,10.00
2019-05-12T07:56:44.210Z,10.00
2019-05-12T07:59:10.549Z,10.10
2019-05-12T08:01:48.637Z,10.00
2019-05-12T08:04:04.728Z,10.00
2019-05-12T08:06:34.700Z,9.90
2019-05-12T08:08:59.172Z,9.80
2019-05-12T08:11:28.811Z,9.80
2019-05-12T08:13:54.222Z,9.80
2019-05-12T08:16:28.388Z,9.90
2019-05-12T08:18:48.759Z,9.90
2019-05-12T08:21:14.826Z,10.00
2019-05-12T08:23:40.906Z,9.90
2019-05-12T08:26:12.519Z,9.90
2019-05-12T08:28:40.275Z,10.00
2019-05-12T08:31:03.658Z,10.00
2019-05-12T08:33:49.826Z,10.10
2019-05-12T08:36:16.561Z,10.30
2019-05-12T08:38:44.425Z,10.20
2019-05-12T08:41:10.914Z,10.10
2019-05-12T08:43:40.599Z,10.40
2019-05-12T08:46:09.965Z,10.50
2019-05-12T08:48:34.261Z,10.40
2019-05-12T08:51:05.251Z,10.40
2019-05-12T08:53:28.621Z,10.40
2019-05-12T08:55:54.845Z,10.50
2019-05-12T08:58:31.417Z,10.80
2019-05-12T09:00:50.563Z,10.90
2019-05-12T09:03:20.470Z,10.90
2019-05-12T09:05:45.933Z,11.00
2019-05-12T09:08:13.779Z,11.20
2019-05-12T09:10:40.147Z,11.50
2019-05-12T09:13:06.379Z,12.00
2019-05-12T09:15:34.607Z,12.00
2019-05-12T09:18:00.611Z,11.90
2019-05-12T09:20:26.872Z,11.70
2019-05-12T09:23:00.720Z,11.50
2019-05-12T09:25:23.755Z,11.50
2019-05-12T09:27:49.511Z,11.60
2019-05-12T09:30:19.583Z,11.80
2019-05-12T09:32:50.341Z,11.70
2019-05-12T09:35:14.433Z,11.50
2019-05-12T09:37:40.916Z,11.50
2019-05-12T09:40:07.418Z,11.60
2019-05-12T09:42:33.583Z,11.50
2019-05-12T09:45:00.023Z,11.60
2019-05-12T09:47:27.988Z,11.60
2019-05-12T09:49:54.252Z,11.80
2019-05-12T09:52:23.223Z,12.10
2019-05-12T09:54:48.459Z,12.20
2019-05-12T09:57:14.651Z,12.10
2019-05-12T09:59:45.903Z,11.90
2019-05-12T10:02:10.560Z,11.80
2019-05-12T10:04:36.929Z,11.80
2019-05-12T10:07:03.817Z,12.10
2019-05-12T10:09:30.154Z,12.00
2019-05-12T10:12:00.754Z,11.80
2019-05-12T10:14:24.353Z,11.60
2019-05-12T10:16:50.439Z,11.70
2019-05-12T10:19:16.523Z,11.90
2019-05-12T10:21:43.997Z,12.10
2019-05-12T10:24:10.357Z,12.30
2019-05-12T10:26:41.064Z,12.40
2019-05-12T10:29:16.505Z,12.40
2019-05-12T10:31:35.723Z,12.40
2019-05-12T10:34:19.306Z,12.50
2019-05-12T10:36:49.007Z,12.50
2019-05-12T10:39:15.161Z,12.50
2019-05-12T10:41:43.199Z,12.60
2019-05-12T10:44:09.355Z,12.80
2019-05-12T10:46:35.457Z,12.80
2019-05-12T10:49:03.817Z,12.80
2019-05-12T10:51:29.580Z,12.90
2019-05-12T10:54:04.591Z,13.00
2019-05-12T10:56:24.558Z,13.40
2019-05-12T10:58:52.994Z,14.10
2019-05-12T11:01:19.035Z,14.50
2019-05-12T11:03:50.792Z,14.50
2019-05-12T11:06:13.264Z,14.90
2019-05-12T11:08:41.242Z,14.70
2019-05-12T11:11:07.326Z,14.80
2019-05-12T11:13:33.897Z,15.00
2019-05-12T11:16:00.161Z,15.20
2019-05-12T11:18:30.435Z,15.20
2019-05-12T11:20:54.570Z,15.60
2019-05-12T11:23:20.780Z,14.80
2019-05-12T11:25:47.031Z,14.60
2019-05-12T11:28:14.017Z,15.20
2019-05-12T11:30:40.360Z,15.50
2019-05-12T11:33:06.564Z,15.20
2019-05-12T11:35:33.164Z,14.90
2019-05-12T11:37:59.375Z,14.60
2019-05-12T11:40:25.611Z,14.40
2019-05-12T11:42:55.655Z,14.20
2019-05-12T11:45:19.816Z,14.50
2019-05-12T11:47:46.105Z,14.70
2019-05-12T11:50:13.295Z,15.10
2019-05-12T11:52:39.786Z,15.00
2019-05-12T11:55:06.185Z,14.80
2019-05-12T11:57:34.055Z,14.40
2019-05-12T12:00:02.140Z,14.30
2019-05-12T12:02:30.464Z,14.80
2019-05-12T12:04:56.340Z,14.70
2019-05-12T12:07:26.702Z,14.90
2019-05-12T12:09:55.929Z,15.10
2019-05-12T12:12:24.088Z,15.10
2019-05-12T12:14:50.612Z,15.30
2019-05-12T12:17:22.962Z,15.60
2019-05-12T12:19:46.944Z,15.80
2019-05-12T12:22:20.236Z,15.60
2019-05-12T12:24:43.806Z,15.60
2019-05-12T12:27:10.334Z,15.50
2019-05-12T12:29:43.724Z,15.90
2019-05-12T12:32:15.765Z,16.00
2019-05-12T12:34:38.604Z,16.00
2019-05-12T12:37:07.274Z,15.90
2019-05-12T12:39:33.841Z,15.80
2019-05-12T12:42:00.834Z,16.20
2019-05-12T12:44:27.652Z,16.40
2019-05-12T12:46:59.985Z,16.60
2019-05-12T12:49:23.370Z,16.80
2019-05-12T12:51:49.847Z,16.00
2019-05-12T12:54:16.327Z,16.00
2019-05-12T12:56:42.886Z,16.30
2019-05-12T12:59:10.536Z,16.30
2019-05-12T13:01:37.555Z,16.40
2019-05-12T13:04:06.406Z,16.40
2019-05-12T13:06:34.367Z,16.20
2019-05-12T13:09:00.087Z,16.60
2019-05-12T13:11:33.128Z,17.00
2019-05-12T13:13:54.334Z,17.10
2019-05-12T13:16:40.393Z,17.00
2019-05-12T13:19:12.301Z,17.00
2019-05-12T13:21:35.539Z,17.00
2019-05-12T13:24:03.599Z,16.80
2019-05-12T13:26:30.498Z,16.80
2019-05-12T13:28:57.026Z,16.90
2019-05-12T13:31:24.306Z,16.80
2019-05-12T13:33:54.777Z,16.70
2019-05-12T13:36:19.463Z,16.70
2019-05-12T13:38:45.870Z,16.80
2019-05-12T13:41:18.012Z,17.10
2019-05-12T13:43:40.867Z,17.10
2019-05-12T13:46:07.584Z,17.20
2019-05-12T13:48:34.034Z,17.10
2019-05-12T13:51:08.445Z,17.20
2019-05-12T13:53:28.663Z,17.50
2019-05-12T13:55:55.120Z,16.70
2019-05-12T13:58:21.750Z,16.80
2019-05-12T14:01:09.166Z,17.00
2019-05-12T14:03:15.862Z,17.00
2019-05-12T14:05:50.511Z,17.10
2019-05-12T14:08:10.020Z,17.10
2019-05-12T14:10:37.655Z,16.80
2019-05-12T14:13:04.143Z,17.20
2019-05-12T14:15:30.315Z,17.30
2019-05-12T14:17:56.423Z,17.50
2019-05-12T14:20:23.929Z,17.80
2019-05-12T14:22:50.286Z,17.70
2019-05-12T14:25:20.938Z,16.60
2019-05-12T14:27:44.599Z,16.80
2019-05-12T14:30:13.821Z,17.30
2019-05-12T14:32:39.177Z,17.40
2019-05-12T14:35:06.215Z,17.50
2019-05-12T14:37:33.581Z,17.70
2019-05-12T14:39:59.798Z,17.40
2019-05-12T14:42:33.801Z,16.90
2019-05-12T14:44:54.175Z,16.10
2019-05-12T14:47:27.938Z,16.10
2019-05-12T14:49:48.371Z,16.70
2019-05-12T14:52:14.504Z,16.80
2019-05-12T14:54:40.629Z,16.60
2019-05-12T14:57:06.877Z,16.30
2019-05-12T14:59:39.208Z,16.30
2019-05-12T15:02:03.994Z,16.40
2019-05-12T15:04:29.951Z,16.30
2019-05-12T15:06:59.802Z,16.30
2019-05-12T15:09:24.688Z,16.10
2019-05-12T15:11:50.979Z,16.20
2019-05-12T15:14:17.237Z,16.10
2019-05-12T15:16:44.836Z,15.70
2019-05-12T15:19:13.771Z,15.60
2019-05-12T15:21:39.367Z,15.50
2019-05-12T15:24:09.150Z,15.50
2019-05-12T15:26:33.461Z,15.50
2019-05-12T15:29:04.424Z,15.60
2019-05-12T15:31:27.967Z,15.50
2019-05-12T15:33:54.094Z,15.40
2019-05-12T15:36:20.279Z,15.40
2019-05-12T15:38:49.103Z,15.30
2019-05-12T15:41:16.899Z,15.40
2019-05-12T15:43:44.352Z,15.30
2019-05-12T15:46:10.436Z,15.10
2019-05-12T15:48:36.584Z,15.10
2019-05-12T15:51:05.411Z,15.20
2019-05-12T15:53:33.447Z,15.10
2019-05-12T15:55:59.146Z,15.10
2019-05-12T15:58:25.370Z,15.20
2019-05-12T16:00:53.779Z,15.10
2019-05-12T16:03:19.511Z,15.10
2019-05-12T16:05:45.713Z,15.10
2019-05-12T16:08:14.110Z,15.10
2019-05-12T16:10:40.099Z,15.30
2019-05-12T16:13:06.456Z,15.10
2019-05-12T16:15:34.020Z,15.10
2019-05-12T16:18:05.647Z,14.90
2019-05-12T16:20:33.322Z,14.90
2019-05-12T16:23:00.443Z,14.80
2019-05-12T16:25:30.646Z,14.60
2019-05-12T16:27:54.989Z,14.70
2019-05-12T16:30:25.961Z,14.70
2019-05-12T16:32:49.588Z,14.60
2019-05-12T16:35:20.241Z,14.70
2019-05-12T16:37:46.658Z,14.70
2019-05-12T16:40:13.725Z,14.70
2019-05-12T16:42:46.396Z,14.60
2019-05-12T16:45:19.730Z,14.60
2019-05-12T16:47:48.479Z,14.50
2019-05-12T16:50:24.035Z,14.60
2019-05-12T16:52:45.401Z,14.50
2019-05-12T16:55:12.650Z,14.50
2019-05-12T16:57:47.556Z,14.40
2019-05-12T17:00:10.314Z,14.40
2019-05-12T17:02:41.389Z,14.40
2019-05-12T17:05:14.856Z,14.30
2019-05-12T17:07:34.813Z,14.20
2019-05-12T17:10:03.064Z,14.20
2019-05-12T17:12:32.033Z,14.40
2019-05-12T17:14:59.706Z,14.20
2019-05-12T17:17:25.359Z,14.10
2019-05-12T17:19:53.891Z,14.10
2019-05-12T17:22:19.667Z,14.10
2019-05-12T17:24:45.809Z,14.10
2019-05-12T17:27:15.742Z,14.10
2019-05-12T17:29:44.677Z,14.10
2019-05-12T17:32:13.551Z,14.00
2019-05-12T17:34:45.044Z,14.00
2019-05-12T17:37:08.647Z,14.20
2019-05-12T17:39:38.832Z,14.30
2019-05-12T17:42:03.698Z,14.20
2019-05-12T17:44:31.169Z,14.30
2019-05-12T17:46:58.386Z,14.20
2019-05-12T17:49:30.542Z,14.10
2019-05-12T17:51:53.438Z,14.00
2019-05-12T17:54:26.197Z,14.00
2019-05-12T17:57:09.531Z,13.80
2019-05-12T17:59:36.310Z,13.80
2019-05-12T18:02:05.838Z,13.70
2019-05-12T18:04:33.223Z,13.80
2019-05-12T18:07:05.966Z,13.70
2019-05-12T18:09:30.458Z,13.60
2019-05-12T18:11:56.421Z,13.50
2019-05-12T18:14:27.334Z,13.60
2019-05-12T18:16:53.973Z,13.60
2019-05-12T18:19:19.774Z,13.60
2019-05-12T18:21:46.436Z,13.50
2019-05-12T18:24:14.203Z,13.60
2019-05-12T18:26:46.126Z,13.50
2019-05-12T18:29:09.950Z,13.50
2019-05-12T18:31:36.141Z,13.60
2019-05-12T18:34:04.965Z,13.60
2019-05-12T18:36:31.233Z,13.50
2019-05-12T18:39:05.853Z,13.40
2019-05-12T18:41:26.037Z,13.40
2019-05-12T18:43:53.879Z,13.30
2019-05-12T18:46:21.112Z,13.30
2019-05-12T18:48:47.758Z,13.30
2019-05-12T18:51:17.166Z,13.20
2019-05-12T18:53:43.773Z,13.20
2019-05-12T18:56:16.166Z,13.20
2019-05-12T18:58:39.322Z,13.10
2019-05-12T19:01:06.628Z,13.10
2019-05-12T19:03:47.302Z,13.00
2019-05-12T19:06:05.882Z,12.90
2019-05-12T19:08:34.522Z,12.90
2019-05-12T19:11:14.950Z,12.90
2019-05-12T19:13:29.487Z,12.90
2019-05-12T19:16:02.538Z,12.70
2019-05-12T19:18:32.534Z,12.70
2019-05-12T19:20:54.205Z,12.60
2019-05-12T19:23:20.872Z,12.50
2019-05-12T19:25:48.104Z,12.50
2019-05-12T19:28:14.890Z,12.50
2019-05-12T19:30:43.596Z,12.50
2019-05-12T19:33:10.965Z,12.50
2019-05-12T19:35:38.452Z,12.50
2019-05-12T19:38:04.777Z,12.40
2019-05-12T19:40:56.315Z,12.30
2019-05-12T19:43:19.517Z,12.40
2019-05-12T19:45:46.116Z,12.30
2019-05-12T19:48:23.667Z,12.30
2019-05-12T19:50:44.508Z,12.20
2019-05-12T19:53:10.467Z,12.20
2019-05-12T19:55:37.467Z,12.20
2019-05-12T19:58:10.980Z,12.10
2019-05-12T20:00:33.536Z,12.10
2019-05-12T20:03:00.280Z,12.00
2019-05-12T20:05:27.036Z,11.90
2019-05-12T20:07:53.830Z,12.00
2019-05-12T20:10:20.327Z,12.00
2019-05-12T20:12:48.684Z,11.90
2019-05-12T20:15:15.309Z,11.90
2019-05-12T20:17:44.431Z,11.90
2019-05-12T20:20:13.460Z,11.90
2019-05-12T20:22:39.152Z,11.90
2019-05-12T20:25:05.247Z,11.80
2019-05-12T20:27:31.394Z,11.70
2019-05-12T20:29:57.625Z,11.70
2019-05-12T20:32:24.155Z,11.60
2019-05-12T20:34:53.024Z,11.60
2019-05-12T20:37:18.851Z,11.50
2019-05-12T20:39:51.106Z,11.50
2019-05-12T20:42:14.951Z,11.50
2019-05-12T20:44:43.601Z,11.40
2019-05-12T20:47:09.197Z,11.40
2019-05-12T20:49:35.487Z,11.30
2019-05-12T20:52:04.463Z,11.40
2019-05-12T20:54:29.765Z,11.40
2019-05-12T20:57:02.257Z,11.30
2019-05-12T20:59:28.261Z,11.30
2019-05-12T21:01:52.101Z,11.30
2019-05-12T21:04:22.025Z,11.30
2019-05-12T21:06:48.470Z,11.20
2019-05-12T21:09:14.527Z,11.20
2019-05-12T21:11:41.088Z,11.20
2019-05-12T21:14:10.482Z,11.10
2019-05-12T21:16:38.753Z,11.00
2019-05-12T21:19:10.209Z,11.00
2019-05-12T21:21:34.329Z,11.00
2019-05-12T21:23:59.706Z,11.00
2019-05-12T21:26:28.344Z,11.00
2019-05-12T21:28:54.032Z,10.90
2019-05-12T21:31:20.612Z,10.90
2019-05-12T21:33:48.209Z,10.80
2019-05-12T21:36:23.612Z,10.80
2019-05-12T21:38:42.337Z,10.80
2019-05-12T21:41:10.137Z,10.80
2019-05-12T21:43:36.372Z,10.80
2019-05-12T21:46:10.075Z,10.80
2019-05-12T21:48:30.743Z,10.80
2019-05-12T21:50:56.938Z,10.80
2019-05-12T21:53:23.866Z,10.80
2019-05-12T21:55:57.631Z,10.60
2019-05-12T21:58:18.229Z,10.70
2019-05-12T22:00:50.464Z,10.60
2019-05-12T22:03:17.347Z,10.70
2019-05-12T22:05:51.667Z,10.70
2019-05-12T22:08:20.777Z,10.80
2019-05-12T22:10:43.563Z,10.70
2019-05-12T22:13:29.405Z,10.60
2019-05-12T22:15:57.691Z,10.60
2019-05-12T22:18:23.944Z,10.50
2019-05-12T22:20:52.233Z,10.50
2019-05-12T22:23:18.225Z,10.40
2019-05-12T22:25:49.068Z,10.40
2019-05-12T22:28:13.462Z,10.30
2019-05-12T22:30:39.881Z,10.30
2019-05-12T22:33:10.750Z,10.30
2019-05-12T22:35:34.124Z,10.20
2019-05-12T22:38:00.314Z,10.20
2019-05-12T22:40:26.464Z,10.20
2019-05-12T22:42:56.972Z,10.10
2019-05-12T22:45:20.702Z,10.10
2019-05-12T22:47:49.331Z,10.00
2019-05-12T22:50:15.174Z,10.00
2019-05-12T22:52:45.206Z,10.00
2019-05-12T22:55:09.971Z,9.90
2019-05-12T22:57:40.055Z,9.80
2019-05-12T23:00:07.394Z,9.70
2019-05-12T23:02:33.975Z,9.70
2019-05-12T23:05:00.200Z,9.70
2019-05-12T23:07:29.699Z,9.70
2019-05-12T23:09:54.388Z,9.60
2019-05-12T23:12:20.466Z,9.50
2019-05-12T23:14:46.546Z,9.40
2019-05-12T23:17:13.792Z,9.50
2019-05-12T23:19:45.337Z,9.40
2019-05-12T23:22:08.120Z,9.30
2019-05-12T23:24:39.169Z,9.30
2019-05-12T23:27:04.661Z,9.20
2019-05-12T23:29:31.129Z,9.20
2019-05-12T23:32:00.714Z,9.20
2019-05-12T23:34:25.374Z,9.20
2019-05-12T23:36:56.888Z,9.00
2019-05-12T23:39:20.001Z,9.00
2019-05-12T23:41:46.162Z,9.00
2019-05-12T23:44:13.532Z,9.00
2019-05-12T23:46:39.897Z,9.00
2019-05-12T23:49:06.002Z,8.90
2019-05-12T23:51:34.002Z,8.90
2019-05-12T23:54:00.180Z,8.90
2019-05-12T23:56:26.357Z,8.80
2019-05-12T23:58:53.830Z,8.80
